Latest Weather Observations for Middle Point

IDD60901

Issued at 5:51 pm CST Saturday 4 July 2015 (issued every 10 minutes, with the page automatically refreshed every 10 minutes)

About weather observations | Map of Darwin area stations | Latest observations for Darwin area | Other Formats
Station Details ID: 014041 Name: MIDDLE POINT Lat: -12.61 Lon: 131.30 Height: 14.1 m
Data from the previous 72 hours. | See also: Recent months at Middle Point
Date/Time
CST
Tmp

°C
App
Tmp
°C
Dew
Point
°C
Rel
Hum
%
Delta-T

°C
Wind Press
QNH
hPa
Press
MSL
hPa
Rain
since
9 am
mm
Dir
 
Spd
km/h
Gust
km/h
Spd
kts
Gust
kts
04/05:30pm 30.4 26.6 1.8 16 14.1 SE 11 20 6 11 1010.5 1010.5 0.0
04/05:00pm 31.3 27.6 2.5 16 14.5 ESE 11 19 6 10 1010.4 1010.4 0.0
04/04:30pm 31.6 27.0 1.8 15 14.9 SE 15 24 8 13 1010.4 1010.4 0.0
04/04:00pm 31.8 26.7 1.0 14 15.1 SSE 17 24 9 13 1010.4 1010.4 0.0
04/03:30pm 31.8 27.3 2.0 15 14.9 ESE 15 28 8 15 1010.6 1010.6 0.0
04/03:00pm 32.0 27.7 3.1 16 14.8 ESE 15 28 8 15 1010.9 1010.8 0.0
04/02:30pm 31.5 27.2 3.5 17 14.3 SE 15 24 8 13 1011.4 1011.3 0.0
04/02:00pm 31.1 26.0 3.2 17 14.2 SSE 19 32 10 17 1011.9 1011.8 0.0
04/01:30pm 30.8 27.6 5.3 20 13.4 ESE 11 22 6 12 1012.3 1012.2 0.0
04/01:00pm 30.1 26.4 4.7 20 13.2 ESE 13 26 7 14 1012.9 1012.8 0.0
04/12:30pm 30.4 26.3 6.3 22 12.8 ESE 17 22 9 12 1013.3 1013.2 0.0
04/12:00pm 29.6 25.5 6.3 23 12.4 E 17 24 9 13 1014.0 1013.9 0.0
04/11:30am 28.7 24.1 6.7 25 11.7 ESE 20 28 11 15 1014.6 1014.5 0.0
04/11:00am 28.1 23.9 7.4 27 11.1 E 19 26 10 14 1015.0 1014.9 0.0
04/10:30am 27.6 24.2 9.0 31 10.2 ESE 17 24 9 13 1015.2 1015.1 0.0
04/10:00am 25.4 23.5 10.4 39 8.3 ESE 11 19 6 10 1015.8 1015.7 0.0
04/09:30am 23.0 21.7 11.1 47 6.6 ESE 9 13 5 7 1016.1 1016.0 0.0
04/09:00am 21.4 20.7 11.4 53 5.5 ESE 6 9 3 5 1016.0 1015.9 0.0
04/08:30am 19.9 19.8 12.2 61 4.3 ESE 4 7 2 4 1015.8 1015.7 0.0
04/08:28am 19.8 19.9 12.8 64 4.0 ESE 4 7 2 4 1015.8 1015.7 0.0
04/08:00am 14.8 15.5 13.3 91 0.8 SE 2 4 1 2 1015.4 1015.3 0.0
04/07:30am 11.0 10.1 9.4 90 0.8 SW 4 7 2 4 1015.2 1015.1 0.0
04/07:00am 11.3 10.5 9.7 90 0.8 SE 4 6 2 3 1014.9 1014.8 0.0
04/06:30am 11.4 10.6 9.7 89 0.9 ENE 4 6 2 3 1014.7 1014.6 0.0
04/06:00am 12.0 12.1 10.1 88 1.0 CALM 0 0 0 0 1014.5 1014.4 0.0
04/05:30am 12.7 13.0 10.8 88 1.0 CALM 0 0 0 0 1014.5 1014.4 0.0
04/05:00am 12.8 12.8 9.8 82 1.5 CALM 0 0 0 0 1014.5 1014.4 0.0
04/04:30am 15.5 14.8 11.5 77 2.2 NE 6 9 3 5 1014.2 1014.1 0.0
04/04:00am 14.3 13.5 10.9 80 1.8 S 6 6 3 3 1014.0 1013.9 0.0
04/03:30am 13.6 12.9 11.3 86 1.2 SSW 6 7 3 4 1014.1 1014.0 0.0
04/03:00am 14.2 14.0 11.9 86 1.2 SSW 4 6 2 3 1014.3 1014.2 0.0
04/02:30am 14.2 13.7 11.9 86 1.2 SSW 6 6 3 3 1014.4 1014.3 0.0
04/02:00am 14.2 13.7 12.1 87 1.1 SSW 6 6 3 3 1014.5 1014.4 0.0
04/01:30am 14.8 14.5 12.8 88 1.1 SSW 6 6 3 3 1014.5 1014.4 0.0
04/01:00am 14.8 15.7 12.8 88 1.1 CALM 0 0 0 0 1014.5 1014.4 0.0
04/12:30am 15.5 16.5 13.3 87 1.2 CALM 0 0 0 0 1014.3 1014.2 0.0
04/12:00am 16.3 17.4 13.4 83 1.6 CALM 0 0 0 0 1014.5 1014.4 0.0
 
Date/Time
CST
Tmp

°C
App
Tmp
°C
Dew
Point
°C
Rel
Hum
%
Delta-T

°C
Wind Press
QNH
hPa
Press
MSL
hPa
Rain
since
9 am
mm
Dir
 
Spd
km/h
Gust
km/h
Spd
kts
Gust
kts
03/11:30pm 16.8 17.8 13.1 79 2.1 CALM 0 2 0 1 1014.6 1014.5 0.0
03/11:00pm 21.5 21.0 13.7 61 4.5 SE 9 11 5 6 1014.5 1014.4 0.0
03/10:30pm 20.3 20.6 14.9 71 3.2 SE 7 11 4 6 1014.7 1014.6 0.0
03/10:00pm 18.7 19.9 15.0 79 2.2 SW 2 4 1 2 1014.5 1014.4 0.0
03/09:30pm 18.7 19.4 14.4 76 2.5 SW 4 4 2 2 1014.3 1014.2 0.0
03/09:00pm 19.9 21.6 15.1 74 2.8 CALM 0 0 0 0 1014.0 1013.9 0.0
03/08:30pm 19.4 20.4 13.1 67 3.6 CALM 0 0 0 0 1013.6 1013.5 0.0
03/08:00pm 21.1 21.8 13.3 61 4.5 N 2 6 1 3 1013.3 1013.2 0.0
03/07:30pm 23.4 23.7 14.4 57 5.3 N 6 7 3 4 1012.9 1012.8 0.0
03/07:00pm 24.1 23.0 10.7 43 7.4 NNE 7 11 4 6 1012.6 1012.5 0.0
03/06:30pm 27.4 25.4 8.8 31 10.2 SE 9 11 5 6 1012.2 1012.1 0.0
03/06:00pm 29.6 26.8 8.6 27 11.6 SE 13 17 7 9 1011.9 1011.8 0.0
03/05:30pm 30.4 28.0 8.7 26 12.0 SE 11 17 6 9 1011.7 1011.6 0.0
03/05:00pm 31.3 28.8 8.3 24 12.7 SE 11 15 6 8 1011.7 1011.6 0.0
03/04:30pm 32.0 28.9 8.9 24 13.0 SE 15 22 8 12 1011.6 1011.5 0.0
03/04:00pm 32.4 28.2 7.3 21 13.7 ESE 19 26 10 14 1011.6 1011.5 0.0
03/03:30pm 32.8 29.5 9.6 24 13.2 ESE 17 22 9 12 1011.8 1011.7 0.0
03/03:00pm 32.5 29.1 9.3 24 13.1 E 17 24 9 13 1012.2 1012.1 0.0
03/02:30pm 32.0 29.2 10.1 26 12.5 E 15 24 8 13 1012.6 1012.5 0.0
03/02:00pm 32.1 29.1 10.8 27 12.3 E 17 26 9 14 1013.0 1012.9 0.0
03/01:30pm 32.0 29.9 12.3 30 11.7 ESE 15 30 8 16 1013.8 1013.7 0.0
03/01:00pm 31.7 28.4 11.0 28 12.0 E 19 30 10 16 1014.3 1014.2 0.0
03/12:30pm 31.1 28.0 11.5 30 11.4 E 19 32 10 17 1014.8 1014.7 0.0
03/12:00pm 31.1 27.3 12.5 32 11.0 ESE 24 32 13 17 1015.4 1015.3 0.0
03/11:30am 30.3 27.9 12.7 34 10.4 E 17 26 9 14 1015.9 1015.8 0.0
03/11:00am 29.2 26.1 13.4 38 9.4 ESE 22 33 12 18 1016.2 1016.1 0.0
03/10:30am 28.5 26.0 14.0 41 8.7 E 20 32 11 17 1016.4 1016.3 0.0
03/10:00am 28.1 27.1 15.7 46 7.6 ESE 15 20 8 11 1016.5 1016.4 0.0
03/09:30am 25.5 26.0 15.5 54 6.1 SE 7 11 4 6 1016.7 1016.6 0.0
03/09:00am 23.1 23.1 15.2 61 4.7 SSE 9 15 5 8 1016.7 1016.6 0.0
03/08:30am 21.6 22.2 16.8 74 2.9 S 9 13 5 7 1016.8 1016.7 0.0
03/08:00am 18.5 20.4 16.8 90 1.0 S 2 4 1 2 1016.4 1016.3 0.0
03/07:30am 15.9 16.6 14.4 91 0.9 S 4 6 2 3 1016.0 1015.9 0.0
03/07:00am 15.5 15.6 13.9 90 0.9 SSE 6 7 3 4 1015.7 1015.6 0.0
03/06:30am 16.1 17.7 15.0 93 0.6 CALM 0 0 0 0 1015.6 1015.5 0.0
03/06:00am 15.9 16.6 14.6 92 0.7 S 4 6 2 3 1015.4 1015.3 0.0
03/05:30am 15.7 15.8 13.9 89 1.0 S 6 7 3 4 1015.2 1015.1 0.0
03/05:00am 16.2 17.1 14.0 87 1.2 SSE 2 6 1 3 1015.1 1015.0 0.0
03/04:30am 16.9 18.2 15.1 89 1.0 SSW 2 4 1 2 1015.1 1015.0 0.0
03/04:00am 17.2 19.0 15.4 89 1.1 CALM 0 0 0 0 1015.2 1015.1 0.0
03/03:30am 17.8 19.5 16.3 91 0.9 SSW 2 4 1 2 1015.4 1015.3 0.0
03/03:00am 17.2 19.0 15.5 90 1.0 CALM 0 4 0 2 1015.5 1015.4 0.0
03/02:30am 17.4 18.1 15.7 90 1.0 WSW 6 6 3 3 1015.4 1015.3 0.0
03/02:00am 17.3 18.0 15.6 90 1.0 W 6 7 3 4 1015.6 1015.5 0.0
03/01:30am 18.0 19.8 15.4 85 1.5 CALM 0 0 0 0 1015.7 1015.6 0.0
03/01:00am 19.0 21.2 16.4 85 1.6 CALM 0 0 0 0 1015.6 1015.5 0.0
03/12:30am 19.0 21.1 16.2 84 1.7 CALM 0 0 0 0 1015.8 1015.7 0.0
03/12:00am 18.9 20.6 16.1 84 1.7 SW 2 4 1 2 1015.8 1015.7 0.0
 
Date/Time
CST
Tmp

°C
App
Tmp
°C
Dew
Point
°C
Rel
Hum
%
Delta-T

°C
Wind Press
QNH
hPa
Press
MSL
hPa
Rain
since
9 am
mm
Dir
 
Spd
km/h
Gust
km/h
Spd
kts
Gust
kts
02/11:30pm 18.6 19.9 16.2 86 1.4 WSW 4 4 2 2 1015.8 1015.7 0.0
02/11:00pm 19.1 21.0 15.8 81 2.0 CALM 0 0 0 0 1015.8 1015.7 0.0
02/10:30pm 19.5 21.5 16.0 80 2.1 CALM 0 0 0 0 1015.6 1015.5 0.0
02/10:00pm 20.0 21.5 16.6 81 2.1 NNE 4 4 2 2 1015.5 1015.4 0.0
02/09:30pm 19.9 21.0 15.7 77 2.5 N 4 6 2 3 1015.4 1015.3 0.0
02/09:00pm 20.1 20.8 15.5 75 2.7 NNW 6 9 3 5 1015.1 1015.0 0.0
02/08:30pm 21.4 22.0 15.3 68 3.6 N 6 6 3 3 1014.8 1014.7 0.0
02/08:00pm 22.5 23.1 15.8 66 4.0 N 7 7 4 4 1014.4 1014.3 0.0
02/07:30pm 23.8 24.3 15.6 60 4.9 N 7 9 4 5 1014.0 1013.9 0.0
02/07:00pm 25.2 25.2 15.2 54 6.0 N 9 11 5 6 1013.7 1013.6 0.0
02/06:30pm 26.8 26.3 14.9 48 7.2 N 11 15 6 8 1013.2 1013.1 0.0
02/06:00pm 28.8 26.9 14.2 40 8.8 NNE 17 24 9 13 1012.9 1012.8 0.0
02/05:30pm 32.1 29.5 10.8 27 12.3 ENE 15 20 8 11 1012.5 1012.4 0.0
02/05:00pm 32.7 29.3 10.7 26 12.7 E 19 26 10 14 1012.4 1012.3 0.0
02/04:30pm 32.9 31.1 10.9 26 12.8 E 11 20 6 11 1012.4 1012.3 0.0
02/04:00pm 33.4 30.4 10.7 25 13.2 ENE 17 24 9 13 1012.4 1012.3 0.0
02/03:30pm 33.7 29.3 10.3 24 13.5 E 24 32 13 17 1012.5 1012.4 0.0
02/03:00pm 33.5 29.8 11.4 26 13.0 E 22 33 12 18 1012.8 1012.7 0.0
02/02:30pm 33.6 30.4 12.0 27 12.8 E 20 32 11 17 1013.2 1013.1 0.0
02/02:00pm 32.6 27.7 11.2 27 12.5 E 28 41 15 22 1014.0 1013.9 0.0
02/01:30pm 32.6 29.0 11.7 28 12.3 ESE 22 33 12 18 1014.7 1014.6 0.0
02/01:00pm 32.1 28.3 11.3 28 12.1 E 22 41 12 22 1015.2 1015.1 0.0
02/12:34pm 32.8 28.2 12.4 29 12.1 E 28 50 15 27 1015.6 1015.5 0.0
02/12:30pm 32.0 27.1 11.2 28 12.1 E 28 37 15 20 1015.7 1015.6 0.0
02/12:00pm 31.9 27.1 11.7 29 11.8 ESE 28 41 15 22 1016.3 1016.2 0.0
02/11:30am 31.3 26.4 12.6 31 11.1 E 30 39 16 21 1016.8 1016.7 0.0
02/11:00am 30.3 24.6 13.1 34 10.2 ESE 35 48 19 26 1017.2 1017.1 0.0
02/10:30am 30.1 26.1 14.2 38 9.6 E 28 43 15 23 1017.5 1017.4 0.0
02/10:00am 28.3 25.3 14.9 44 8.1 ESE 24 35 13 19 1017.8 1017.7 0.0
02/09:30am 26.6 25.3 16.8 55 6.1 ESE 19 26 10 14 1017.9 1017.8 0.0
02/09:00am 25.4 27.0 18.3 65 4.5 SE 7 13 4 7 1017.7 1017.6 0.0
02/08:30am 24.0 25.6 18.2 70 3.6 ESE 7 9 4 5 1017.6 1017.5 0.0
02/08:00am 22.1 25.2 19.6 86 1.6 SE 2 6 1 3 1017.3 1017.2 0.0
02/07:30am 20.3 23.2 18.2 88 1.3 CALM 0 0 0 0 1017.1 1017.0 0.0
02/07:00am 19.6 22.3 17.7 89 1.2 CALM 0 0 0 0 1016.8 1016.7 0.0
02/06:30am 19.6 22.1 17.2 86 1.5 CALM 0 2 0 1 1016.6 1016.5 0.0
02/06:00am 20.5 23.0 17.3 82 2.0 CALM 0 0 0 0 1016.4 1016.3 0.0
02/05:30am 21.7 24.1 17.9 79 2.4 E 2 2 1 1 1016.1 1016.0 0.0
02/05:00am 21.8 23.8 17.8 78 2.5 E 4 6 2 3 1016.0 1015.9 0.0
02/04:30am 22.3 25.4 18.7 80 2.3 CALM 0 0 0 0 1016.0 1015.9 0.0
02/04:00am 22.7 26.1 19.3 81 2.2 CALM 0 0 0 0 1016.2 1016.1 0.0
02/03:30am 22.7 26.0 19.1 80 2.3 CALM 0 0 0 0 1016.2 1016.1 0.0
02/03:00am 23.4 26.1 18.7 75 3.0 E 2 2 1 1 1016.2 1016.1 0.0
02/02:30am 23.3 25.7 18.8 76 2.8 E 4 4 2 2 1016.4 1016.3 0.0
02/02:00am 23.2 24.8 18.3 74 3.1 ESE 7 9 4 5 1016.5 1016.4 0.0
02/01:30am 24.7 24.5 17.7 65 4.4 ENE 15 26 8 14 1016.7 1016.6 0.0
02/01:00am 25.1 25.5 17.3 62 4.9 E 11 17 6 9 1016.7 1016.6 0.0
02/12:30am 24.6 26.0 17.3 64 4.5 E 6 7 3 4 1016.7 1016.6 0.0
02/12:00am 25.3 26.1 17.2 61 5.0 E 9 11 5 6 1016.6 1016.5 0.0
 
Date/Time
CST
Tmp

°C
App
Tmp
°C
Dew
Point
°C
Rel
Hum
%
Delta-T

°C
Wind Press
QNH
hPa
Press
MSL
hPa
Rain
since
9 am
mm
Dir
 
Spd
km/h
Gust
km/h
Spd
kts
Gust
kts
01/11:30pm 25.7 25.8 17.4 60 5.2 E 13 19 7 10 1016.8 1016.7 0.0
01/11:00pm 26.1 25.7 17.2 58 5.6 E 15 20 8 11 1016.8 1016.7 0.0
01/10:30pm 25.3 25.7 16.4 57 5.5 E 9 13 5 7 1016.7 1016.6 0.0
01/10:00pm 25.6 25.5 15.9 55 5.9 E 11 17 6 9 1016.5 1016.4 0.0
01/09:30pm 23.8 24.7 16.1 62 4.7 SE 6 7 3 4 1016.3 1016.2 0.0
01/09:00pm 23.8 24.5 15.6 60 4.9 ESE 6 7 3 4 1015.9 1015.8 0.0
01/08:30pm 24.4 24.7 15.1 56 5.6 SE 7 7 4 4 1015.5 1015.4 0.0
01/08:00pm 24.8 25.3 15.1 54 5.8 ESE 6 7 3 4 1015.0 1014.9 0.0
01/07:30pm 25.6 25.5 15.0 52 6.4 ESE 9 11 5 6 1014.6 1014.5 0.0
01/07:00pm 26.7 26.3 14.1 46 7.5 ESE 9 11 5 6 1014.2 1014.1 0.0
01/06:30pm 28.4 28.1 14.3 42 8.5 ESE 9 13 5 7 1013.9 1013.8 0.0
01/06:00pm 30.1 29.2 13.8 37 9.8 ESE 11 15 6 8 1013.6 1013.5 0.0

Latest Capital City Observations: Canberra | Sydney | Melbourne | Brisbane | Adelaide | Perth | Hobart | Darwin

Other Formats:

Comma delimited format used in spreadsheet applications
http://www.bom.gov.au/fwo/IDD60901/IDD60901.95121.axf

JavaScript Object Notation format (JSON) in row-major order
http://www.bom.gov.au/fwo/IDD60901/IDD60901.95121.json